createdAt,value
2017-03-14T00:00:39.011Z,0.64
2017-03-14T00:01:39.033Z,0.71
2017-03-14T00:02:39.058Z,0.64
2017-03-14T00:03:39.080Z,0.66
2017-03-14T00:04:39.106Z,0.63
2017-03-14T00:05:39.132Z,0.64
2017-03-14T00:06:39.152Z,0.66
2017-03-14T00:07:39.183Z,0.66
2017-03-14T00:08:39.207Z,0.6
2017-03-14T00:09:39.234Z,0.67
2017-03-14T00:10:39.258Z,0.64
2017-03-14T00:11:39.283Z,0.69
2017-03-14T00:12:39.312Z,0.63
2017-03-14T00:13:39.331Z,0.66
2017-03-14T00:14:39.354Z,0.69
2017-03-14T00:15:39.389Z,0.66
2017-03-14T00:16:39.406Z,0.67
2017-03-14T00:17:39.439Z,0.58
2017-03-14T00:18:39.455Z,0.64
2017-03-14T00:19:39.480Z,0.66
2017-03-14T00:20:39.502Z,0.64
2017-03-14T00:21:39.531Z,0.64
2017-03-14T00:22:39.555Z,0.71
2017-03-14T00:23:39.578Z,0.67
2017-03-14T00:24:39.605Z,0.79
2017-03-14T00:25:39.629Z,0.81
2017-03-14T00:26:39.653Z,0.85
2017-03-14T00:27:39.676Z,0.93
2017-03-14T00:28:39.707Z,0.93
2017-03-14T00:29:39.752Z,0.92
2017-03-14T00:30:39.735Z,0.9
2017-03-14T00:31:39.779Z,0.93
2017-03-14T00:32:39.804Z,0.99
2017-03-14T00:33:39.826Z,0.93
2017-03-14T00:34:39.846Z,0.93
2017-03-14T00:35:39.875Z,0.92
2017-03-14T00:36:39.926Z,0.99
2017-03-14T00:37:39.925Z,0.99
2017-03-14T00:38:39.948Z,0.97
2017-03-14T00:39:39.973Z,1.02
2017-03-14T00:40:39.993Z,1
2017-03-14T00:41:40.021Z,1
2017-03-14T00:42:40.042Z,0.94
2017-03-14T00:43:40.073Z,0.92
2017-03-14T00:44:40.091Z,0.92
2017-03-14T00:45:40.122Z,0.86
2017-03-14T00:46:40.146Z,0.86
2017-03-14T00:47:40.164Z,0.89
2017-03-14T00:48:40.188Z,0.76
2017-03-14T00:49:40.235Z,0.82
2017-03-14T00:50:40.247Z,0.81
2017-03-14T00:51:40.267Z,0.79
2017-03-14T00:52:40.297Z,0.82
2017-03-14T00:53:40.320Z,0.82
2017-03-14T00:54:40.344Z,0.86
2017-03-14T00:55:40.370Z,0.93
2017-03-14T00:56:40.393Z,0.92
2017-03-14T00:57:40.423Z,1.02
2017-03-14T00:58:40.445Z,0.99
2017-03-14T00:59:40.463Z,1.08
2017-03-14T01:00:40.493Z,1.08
2017-03-14T01:01:40.504Z,1.07
2017-03-14T01:02:40.545Z,1.04
2017-03-14T01:03:40.564Z,1.03
2017-03-14T01:04:40.593Z,0.97
2017-03-14T01:05:40.608Z,1
2017-03-14T01:06:40.641Z,1.02
2017-03-14T01:07:40.668Z,0.99
2017-03-14T01:08:40.717Z,0.99
2017-03-14T01:09:40.706Z,0.9
2017-03-14T01:10:40.743Z,0.89
2017-03-14T01:11:40.762Z,0.9
2017-03-14T01:12:40.793Z,0.84
2017-03-14T01:13:40.808Z,0.86
2017-03-14T01:14:40.839Z,0.75
2017-03-14T01:15:40.862Z,0.78
2017-03-14T01:16:40.883Z,0.81
2017-03-14T01:17:40.907Z,0.81
2017-03-14T01:18:40.943Z,0.86
2017-03-14T01:19:40.968Z,0.76
2017-03-14T01:20:40.986Z,0.78
2017-03-14T01:21:41.010Z,0.86
2017-03-14T01:22:41.039Z,0.86
2017-03-14T01:23:41.059Z,0.93
2017-03-14T01:24:41.088Z,0.89
2017-03-14T01:25:41.112Z,0.97
2017-03-14T01:26:41.131Z,0.97
2017-03-14T01:27:41.161Z,1.12
2017-03-14T01:28:41.185Z,1.14
2017-03-14T01:29:41.214Z,1.1
2017-03-14T01:30:41.231Z,1.15
2017-03-14T01:31:41.263Z,1.18
2017-03-14T01:32:41.281Z,1.08
2017-03-14T01:33:41.310Z,1.12
2017-03-14T01:34:41.329Z,1.07
2017-03-14T01:35:41.364Z,1.03
2017-03-14T01:36:41.379Z,1
2017-03-14T01:37:41.409Z,0.96
2017-03-14T01:38:41.430Z,0.9
2017-03-14T01:39:41.455Z,0.92
2017-03-14T01:40:41.466Z,0.94
2017-03-14T01:41:41.506Z,0.96
2017-03-14T01:42:41.529Z,0.93
2017-03-14T01:43:41.554Z,0.9
2017-03-14T01:44:41.566Z,0.85
2017-03-14T01:45:41.604Z,0.85
2017-03-14T01:46:41.630Z,0.85
2017-03-14T01:47:41.658Z,0.76
2017-03-14T01:48:41.678Z,0.81
2017-03-14T01:49:41.702Z,0.75
2017-03-14T01:50:41.729Z,0.78
2017-03-14T01:51:41.764Z,0.75
2017-03-14T01:52:41.778Z,0.82
2017-03-14T01:53:41.802Z,0.78
2017-03-14T01:54:41.825Z,0.72
2017-03-14T01:55:41.850Z,0.75
2017-03-14T01:56:41.880Z,0.76
2017-03-14T01:57:41.898Z,0.75
2017-03-14T01:58:41.936Z,0.84
2017-03-14T01:59:41.950Z,0.78
2017-03-14T02:00:41.973Z,0.82
2017-03-14T02:01:41.999Z,0.9
2017-03-14T02:02:42.021Z,0.89
2017-03-14T02:03:42.039Z,1.03
2017-03-14T02:04:42.078Z,1.03
2017-03-14T02:05:42.099Z,1.03
2017-03-14T02:06:42.122Z,1.14
2017-03-14T02:07:42.156Z,1.04
2017-03-14T02:08:42.204Z,1.08
2017-03-14T02:09:42.299Z,1.12
2017-03-14T02:10:42.223Z,1.15
2017-03-14T02:11:42.248Z,1.1
2017-03-14T02:12:42.261Z,1.12
2017-03-14T02:13:42.296Z,1.14
2017-03-14T02:14:42.315Z,1.2
2017-03-14T02:15:42.353Z,1.24
2017-03-14T02:16:42.362Z,1.21
2017-03-14T02:17:42.384Z,1.29
2017-03-14T02:18:42.416Z,1.28
2017-03-14T02:19:42.447Z,1.26
2017-03-14T02:20:42.458Z,1.3
2017-03-14T02:21:42.494Z,1.28
2017-03-14T02:22:42.515Z,1.22
2017-03-14T02:23:42.540Z,1.22
2017-03-14T02:24:42.557Z,1.26
2017-03-14T02:25:42.591Z,1.33
2017-03-14T02:26:42.611Z,1.24
2017-03-14T02:27:42.642Z,1.24
2017-03-14T02:28:42.667Z,1.33
2017-03-14T02:29:42.686Z,1.26
2017-03-14T02:30:42.714Z,1.22
2017-03-14T02:31:42.740Z,1.3
2017-03-14T02:32:42.762Z,1.24
2017-03-14T02:33:42.796Z,1.17
2017-03-14T02:34:42.816Z,1.18
2017-03-14T02:35:42.990Z,1.29
2017-03-14T02:36:42.862Z,1.22
2017-03-14T02:37:42.888Z,1.22
2017-03-14T02:38:42.911Z,1.3
2017-03-14T02:39:42.940Z,1.24
2017-03-14T02:40:42.961Z,1.33
2017-03-14T02:41:42.986Z,1.24
2017-03-14T02:42:43.009Z,1.35
2017-03-14T02:43:43.036Z,1.32
2017-03-14T02:44:43.063Z,1.36
2017-03-14T02:45:43.088Z,1.38
2017-03-14T02:46:43.112Z,1.46
2017-03-14T02:47:43.132Z,1.54
2017-03-14T02:48:43.162Z,1.53
2017-03-14T02:49:43.183Z,1.58
2017-03-14T02:50:43.212Z,1.66
2017-03-14T02:51:43.236Z,1.56
2017-03-14T02:52:43.262Z,1.6
2017-03-14T02:53:43.285Z,1.68
2017-03-14T02:54:43.311Z,1.61
2017-03-14T02:55:43.336Z,1.54
2017-03-14T02:56:43.351Z,1.57
2017-03-14T02:57:43.373Z,1.54
2017-03-14T02:58:43.407Z,1.48
2017-03-14T02:59:43.436Z,1.51
2017-03-14T03:00:43.455Z,1.56
2017-03-14T03:01:43.486Z,1.46
2017-03-14T03:02:43.508Z,1.4
2017-03-14T03:03:43.527Z,1.44
2017-03-14T03:04:43.553Z,1.44
2017-03-14T03:05:43.583Z,1.39
2017-03-14T03:06:43.612Z,1.42
2017-03-14T03:07:43.641Z,1.4
2017-03-14T03:08:43.653Z,1.5
2017-03-14T03:09:43.682Z,1.48
2017-03-14T03:10:43.704Z,1.47
2017-03-14T03:11:43.833Z,1.46
2017-03-14T03:12:43.790Z,1.48
2017-03-14T03:13:43.781Z,1.5
2017-03-14T03:14:43.812Z,1.42
2017-03-14T03:15:43.848Z,1.48
2017-03-14T03:16:43.850Z,1.46
2017-03-14T03:17:43.877Z,1.5
2017-03-14T03:18:43.911Z,1.48
2017-03-14T03:19:43.931Z,1.56
2017-03-14T03:20:43.954Z,1.51
2017-03-14T03:21:43.988Z,1.44
2017-03-14T03:22:44.008Z,1.48
2017-03-14T03:23:44.028Z,1.46
2017-03-14T03:24:44.064Z,1.47
2017-03-14T03:25:44.092Z,1.51
2017-03-14T03:26:44.094Z,1.51
2017-03-14T03:27:44.130Z,1.51
2017-03-14T03:28:44.157Z,1.48
2017-03-14T03:29:44.183Z,1.5
2017-03-14T03:30:44.190Z,1.51
2017-03-14T03:31:44.234Z,1.51
2017-03-14T03:32:44.242Z,1.54
2017-03-14T03:33:44.274Z,1.48
2017-03-14T03:34:44.295Z,1.46
2017-03-14T03:35:44.337Z,1.42
2017-03-14T03:36:44.343Z,1.53
2017-03-14T03:37:44.382Z,1.58
2017-03-14T03:38:44.407Z,1.57
2017-03-14T03:39:44.430Z,1.47
2017-03-14T03:40:44.457Z,1.6
2017-03-14T03:41:44.478Z,1.48
2017-03-14T03:42:44.510Z,1.54
2017-03-14T03:43:44.538Z,1.56
2017-03-14T03:44:44.545Z,1.61
2017-03-14T03:45:44.584Z,1.57
2017-03-14T03:46:44.592Z,1.64
2017-03-14T03:47:44.633Z,1.57
2017-03-14T03:48:44.658Z,1.57
2017-03-14T03:49:44.684Z,1.54
2017-03-14T03:50:44.711Z,1.57
2017-03-14T03:51:44.732Z,1.66
2017-03-14T03:52:44.758Z,1.65
2017-03-14T03:53:44.786Z,1.64
2017-03-14T03:54:44.819Z,1.6
2017-03-14T03:55:44.841Z,1.68
2017-03-14T03:56:44.852Z,1.6
2017-03-14T03:57:44.870Z,1.69
2017-03-14T03:58:44.922Z,1.68
2017-03-14T03:59:44.932Z,1.74
2017-03-14T04:00:44.959Z,1.74
2017-03-14T04:01:44.989Z,1.78
2017-03-14T04:02:45.011Z,1.83
2017-03-14T04:03:45.030Z,1.76
2017-03-14T04:04:45.067Z,1.87
2017-03-14T04:05:45.074Z,1.89
2017-03-14T04:06:45.094Z,1.89
2017-03-14T04:07:45.133Z,1.84
2017-03-14T04:08:45.141Z,1.87
2017-03-14T04:09:45.186Z,1.9
2017-03-14T04:10:45.210Z,1.87
2017-03-14T04:11:45.236Z,1.87
2017-03-14T04:12:45.250Z,1.78
2017-03-14T04:13:45.282Z,1.92
2017-03-14T04:14:45.317Z,1.78
2017-03-14T04:15:45.341Z,1.87
2017-03-14T04:16:45.366Z,1.89
2017-03-14T04:17:45.385Z,1.94
2017-03-14T04:18:45.418Z,1.9
2017-03-14T04:19:45.438Z,1.9
2017-03-14T04:20:45.441Z,1.97
2017-03-14T04:21:45.487Z,1.89
2017-03-14T04:22:45.516Z,1.93
2017-03-14T04:23:45.532Z,1.93
2017-03-14T04:24:45.563Z,2.05
2017-03-14T04:25:45.572Z,2.04
2017-03-14T04:26:45.615Z,2.09
2017-03-14T04:27:45.641Z,2.08
2017-03-14T04:28:45.663Z,2.11
2017-03-14T04:29:45.686Z,2.15
2017-03-14T04:30:45.713Z,2.06
2017-03-14T04:31:45.733Z,2.16
2017-03-14T04:32:45.761Z,2.2
2017-03-14T04:33:45.792Z,2.27
2017-03-14T04:34:45.815Z,2.34
2017-03-14T04:35:45.836Z,2.34
2017-03-14T04:36:45.844Z,2.4
2017-03-14T04:37:45.887Z,2.31
2017-03-14T04:38:45.915Z,2.31
2017-03-14T04:39:45.942Z,2.41
2017-03-14T04:40:45.959Z,2.42
2017-03-14T04:41:45.991Z,2.42
2017-03-14T04:42:46.014Z,2.45
2017-03-14T04:43:46.040Z,2.55
2017-03-14T04:44:46.069Z,2.55
2017-03-14T04:45:46.089Z,2.58
2017-03-14T04:46:46.108Z,2.59
2017-03-14T04:47:46.140Z,2.67
2017-03-14T04:48:46.165Z,2.69
2017-03-14T04:49:46.195Z,2.69
2017-03-14T04:50:46.217Z,2.69
2017-03-14T04:51:46.239Z,2.66
2017-03-14T04:52:46.265Z,2.69
2017-03-14T04:53:46.293Z,2.77
2017-03-14T04:54:46.320Z,2.78
2017-03-14T04:55:46.344Z,2.8
2017-03-14T04:56:46.353Z,2.78
2017-03-14T04:57:46.393Z,2.8
2017-03-14T04:58:46.417Z,2.84
2017-03-14T04:59:46.449Z,2.91
2017-03-14T05:00:46.475Z,2.83
2017-03-14T05:01:46.493Z,2.87
2017-03-14T05:02:46.516Z,2.87
2017-03-14T05:03:46.543Z,2.88
2017-03-14T05:04:46.568Z,2.95
2017-03-14T05:05:46.595Z,2.98
2017-03-14T05:06:46.618Z,2.91
2017-03-14T05:07:46.645Z,2.98
2017-03-14T05:08:46.664Z,3.01
2017-03-14T05:09:46.694Z,2.99
2017-03-14T05:10:46.727Z,2.95
2017-03-14T05:11:46.742Z,2.98
2017-03-14T05:12:46.778Z,2.95
2017-03-14T05:13:46.800Z,2.99
2017-03-14T05:14:46.822Z,2.98
2017-03-14T05:15:46.935Z,2.98
2017-03-14T05:16:46.875Z,3.01
2017-03-14T05:17:46.898Z,3.01
2017-03-14T05:18:46.949Z,2.96
2017-03-14T05:19:46.951Z,2.99
2017-03-14T05:20:47.067Z,3.01
2017-03-14T05:21:46.999Z,3.01
2017-03-14T05:22:47.030Z,3.03
2017-03-14T05:23:47.043Z,2.99
2017-03-14T05:24:47.118Z,3.09
2017-03-14T05:25:47.133Z,2.96
2017-03-14T05:26:47.139Z,3.01
2017-03-14T05:27:47.144Z,3.11
2017-03-14T05:28:47.188Z,3.11
2017-03-14T05:29:47.189Z,3.11
2017-03-14T05:30:47.230Z,3.14
2017-03-14T05:31:47.259Z,3.09
2017-03-14T05:32:47.296Z,3.19
2017-03-14T05:33:47.317Z,3.17
2017-03-14T05:34:47.330Z,3.21
2017-03-14T05:35:47.357Z,3.21
2017-03-14T05:36:47.383Z,3.21
2017-03-14T05:37:47.409Z,3.19
2017-03-14T05:38:47.433Z,3.19
2017-03-14T05:39:47.462Z,3.21
2017-03-14T05:40:47.489Z,3.27
2017-03-14T05:41:47.513Z,3.27
2017-03-14T05:42:47.536Z,3.3
2017-03-14T05:43:47.572Z,3.24
2017-03-14T05:44:47.590Z,3.39
2017-03-14T05:45:47.601Z,3.23
2017-03-14T05:46:47.643Z,3.39
2017-03-14T05:47:47.666Z,3.39
2017-03-14T05:48:47.694Z,3.42
2017-03-14T05:49:47.723Z,3.43
2017-03-14T05:50:47.743Z,3.46
2017-03-14T05:51:47.776Z,3.53
2017-03-14T05:52:47.798Z,3.61
2017-03-14T05:53:47.824Z,3.66
2017-03-14T05:54:47.850Z,3.72
2017-03-14T05:55:47.873Z,3.82
2017-03-14T05:56:47.896Z,3.82
2017-03-14T05:57:47.926Z,3.86
2017-03-14T05:58:47.955Z,3.96
2017-03-14T05:59:47.980Z,3.92
2017-03-14T06:00:48.005Z,3.92
2017-03-14T06:01:48.025Z,3.96
2017-03-14T06:02:48.051Z,3.93
2017-03-14T06:03:48.076Z,4.07
2017-03-14T06:04:48.109Z,4.12
2017-03-14T06:05:48.161Z,4.02
2017-03-14T06:06:48.159Z,4.08
2017-03-14T06:07:48.181Z,4.14
2017-03-14T06:08:48.206Z,4.08
2017-03-14T06:09:48.237Z,4.18
2017-03-14T06:10:48.259Z,4.2
2017-03-14T06:11:48.285Z,4.17
2017-03-14T06:12:48.310Z,4.21
2017-03-14T06:13:48.334Z,4.18
2017-03-14T06:14:48.361Z,4.2
2017-03-14T06:15:48.388Z,4.18
2017-03-14T06:16:48.410Z,4.18
2017-03-14T06:17:48.437Z,4.24
2017-03-14T06:18:48.452Z,4.22
2017-03-14T06:19:48.494Z,4.26
2017-03-14T06:20:48.542Z,4.3
2017-03-14T06:21:48.541Z,4.15
2017-03-14T06:22:48.581Z,4.21
2017-03-14T06:23:48.594Z,4.29
2017-03-14T06:24:48.615Z,4.29
2017-03-14T06:25:48.650Z,4.29
2017-03-14T06:26:48.664Z,4.3
2017-03-14T06:27:48.702Z,4.21
2017-03-14T06:28:48.724Z,4.17
2017-03-14T06:29:48.745Z,4.2
2017-03-14T06:30:48.777Z,4.2
2017-03-14T06:31:48.810Z,4.15
2017-03-14T06:32:48.833Z,4.3
2017-03-14T06:33:48.857Z,4.26
2017-03-14T06:34:48.890Z,4.35
2017-03-14T06:35:48.909Z,4.3
2017-03-14T06:36:48.932Z,4.33
2017-03-14T06:37:48.961Z,4.36
2017-03-14T06:38:48.985Z,4.35
2017-03-14T06:39:49.012Z,4.35
2017-03-14T06:40:49.139Z,4.36
2017-03-14T06:41:49.046Z,4.33
2017-03-14T06:42:49.091Z,4.36
2017-03-14T06:43:49.110Z,4.38
2017-03-14T06:44:49.145Z,4.33
2017-03-14T06:45:49.269Z,4.36
2017-03-14T06:46:49.195Z,4.36
2017-03-14T06:47:49.228Z,4.4
2017-03-14T06:48:49.249Z,4.35
2017-03-14T06:49:49.272Z,4.38
2017-03-14T06:50:49.302Z,4.4
2017-03-14T06:51:49.330Z,4.44
2017-03-14T06:52:49.351Z,4.5
2017-03-14T06:53:49.380Z,4.44
2017-03-14T06:54:49.403Z,4.54
2017-03-14T06:55:49.436Z,4.47
2017-03-14T06:56:49.459Z,4.66
2017-03-14T06:57:49.487Z,4.69
2017-03-14T06:58:49.509Z,4.61
2017-03-14T06:59:49.536Z,4.68
2017-03-14T07:00:49.538Z,4.68
2017-03-14T07:01:49.586Z,4.65
2017-03-14T07:02:49.605Z,4.64
2017-03-14T07:03:49.643Z,4.71
2017-03-14T07:04:49.661Z,4.65
2017-03-14T07:05:49.706Z,4.64
2017-03-14T07:06:49.725Z,4.64
2017-03-14T07:07:49.747Z,4.79
2017-03-14T07:08:49.761Z,4.72
2017-03-14T07:09:49.797Z,4.83
2017-03-14T07:10:49.833Z,4.88
2017-03-14T07:11:49.851Z,4.85
2017-03-14T07:12:49.877Z,4.84
2017-03-14T07:13:49.906Z,4.88
2017-03-14T07:14:49.933Z,4.88
2017-03-14T07:15:49.955Z,4.9
2017-03-14T07:16:49.981Z,5
2017-03-14T07:17:50.010Z,5.05
2017-03-14T07:18:50.044Z,5.05
2017-03-14T07:19:50.055Z,5.03
2017-03-14T07:20:50.686Z,5.15
2017-03-14T07:21:50.696Z,5.12
2017-03-14T07:22:50.740Z,5.16
2017-03-14T07:23:50.764Z,5.21
2017-03-14T07:24:50.778Z,5.3
2017-03-14T07:25:50.808Z,5.27
2017-03-14T07:26:50.836Z,5.34
2017-03-14T07:27:50.850Z,5.36
2017-03-14T07:28:50.896Z,5.37
2017-03-14T07:29:50.904Z,5.48
2017-03-14T07:30:50.948Z,5.44
2017-03-14T07:31:50.975Z,5.54
2017-03-14T07:32:50.999Z,5.6
2017-03-14T07:33:51.025Z,5.63
2017-03-14T07:34:51.054Z,5.7
2017-03-14T07:35:51.081Z,5.7
2017-03-14T07:36:51.110Z,5.6
2017-03-14T07:37:51.127Z,5.6
2017-03-14T07:38:51.156Z,5.77
2017-03-14T07:39:51.185Z,5.73
2017-03-14T07:40:51.210Z,5.69
2017-03-14T07:41:51.226Z,5.77
2017-03-14T07:42:51.269Z,5.75
2017-03-14T07:43:51.294Z,5.7
2017-03-14T07:44:51.315Z,5.64
2017-03-14T07:45:51.346Z,5.49
2017-03-14T07:46:51.376Z,5.63
2017-03-14T07:47:51.398Z,5.55
2017-03-14T07:48:51.437Z,5.57
2017-03-14T07:49:51.458Z,5.6
2017-03-14T07:50:51.505Z,5.6
2017-03-14T07:51:51.508Z,5.63
2017-03-14T07:52:51.527Z,5.67
2017-03-14T07:53:51.559Z,5.59
2017-03-14T07:54:51.595Z,5.59
2017-03-14T07:55:51.623Z,5.63
2017-03-14T07:56:51.652Z,5.57
2017-03-14T07:57:51.669Z,5.52
2017-03-14T07:58:51.702Z,5.55
2017-03-14T07:59:51.729Z,5.57
2017-03-14T08:00:51.858Z,5.57
2017-03-14T08:01:51.777Z,5.64
2017-03-14T08:02:51.802Z,5.55
2017-03-14T08:03:51.815Z,5.67
2017-03-14T08:04:51.857Z,5.78
2017-03-14T08:05:51.986Z,5.78
2017-03-14T08:06:51.915Z,5.85
2017-03-14T08:07:51.934Z,5.85
2017-03-14T08:08:51.967Z,5.82
2017-03-14T08:09:52.001Z,5.84
2017-03-14T08:10:52.309Z,5.73
2017-03-14T08:11:52.049Z,5.8
2017-03-14T08:12:52.076Z,5.72
2017-03-14T08:13:52.105Z,5.72
2017-03-14T08:14:52.133Z,5.75
2017-03-14T08:15:52.142Z,5.81
2017-03-14T08:16:52.177Z,5.81
2017-03-14T08:17:52.209Z,5.87
2017-03-14T08:18:52.235Z,5.81
2017-03-14T08:19:52.268Z,5.87
2017-03-14T08:20:52.298Z,5.88
2017-03-14T08:21:52.364Z,6
2017-03-14T08:22:52.352Z,6.03
2017-03-14T08:23:52.375Z,6.09
2017-03-14T08:24:52.403Z,6.1
2017-03-14T08:25:52.431Z,6.14
2017-03-14T08:26:52.485Z,6.2
2017-03-14T08:27:52.471Z,6.17
2017-03-14T08:28:52.516Z,6.25
2017-03-14T08:29:52.544Z,6.28
2017-03-14T08:30:52.581Z,6.24
2017-03-14T08:31:52.592Z,6.18
2017-03-14T08:32:52.606Z,6.15
2017-03-14T08:33:52.645Z,6.17
2017-03-14T08:34:52.677Z,6.17
2017-03-14T08:35:52.722Z,6.2
2017-03-14T08:36:52.731Z,6.15
2017-03-14T08:37:52.749Z,6.03
2017-03-14T08:38:52.784Z,6.06
2017-03-14T08:39:52.822Z,6.09
2017-03-14T08:40:52.837Z,6.05
2017-03-14T08:41:52.868Z,6.05
2017-03-14T08:42:52.895Z,6
2017-03-14T08:43:52.922Z,6.07
2017-03-14T08:44:52.946Z,6.03
2017-03-14T08:45:52.982Z,6.14
2017-03-14T08:46:53.000Z,6.26
2017-03-14T08:47:53.023Z,6.39
2017-03-14T08:48:53.050Z,6.51
2017-03-14T08:49:53.076Z,6.67
2017-03-14T08:50:53.121Z,6.73
2017-03-14T08:51:53.131Z,6.9
2017-03-14T08:52:53.162Z,7.12
2017-03-14T08:53:53.182Z,6.94
2017-03-14T08:54:53.221Z,6.88
2017-03-14T08:55:53.255Z,6.83
2017-03-14T08:56:53.277Z,6.8
2017-03-14T08:57:53.301Z,6.72
2017-03-14T08:58:53.357Z,6.73
2017-03-14T08:59:53.365Z,6.72
2017-03-14T09:00:53.392Z,6.98
2017-03-14T09:01:53.412Z,7.15
2017-03-14T09:02:53.439Z,7.58
2017-03-14T09:03:53.468Z,8.21
2017-03-14T09:04:53.504Z,8.65
2017-03-14T09:05:53.532Z,9
2017-03-14T09:06:53.556Z,9.34
2017-03-14T09:07:53.586Z,9.63
2017-03-14T09:08:53.609Z,9.66
2017-03-14T09:09:53.630Z,9.53
2017-03-14T09:10:53.677Z,9.39
2017-03-14T09:11:53.681Z,9.19
2017-03-14T09:12:53.725Z,9.27
2017-03-14T09:13:53.755Z,9.38
2017-03-14T09:14:53.784Z,9.41
2017-03-14T09:15:53.810Z,9.44
2017-03-14T09:16:53.840Z,9.29
2017-03-14T09:17:53.879Z,9.29
2017-03-14T09:18:53.905Z,9.23
2017-03-14T09:19:53.931Z,9.21
2017-03-14T09:20:53.963Z,9.2
2017-03-14T09:21:54.008Z,9.23
2017-03-14T09:22:54.004Z,9.19
2017-03-14T09:23:54.053Z,9.3
2017-03-14T09:24:54.074Z,9.34
2017-03-14T09:25:54.092Z,9.27
2017-03-14T09:26:54.131Z,9.39
2017-03-14T09:27:54.158Z,9.38
2017-03-14T09:28:54.180Z,9.47
2017-03-14T09:29:54.223Z,9.55
2017-03-14T09:30:54.254Z,9.48
2017-03-14T09:31:54.292Z,9.56
2017-03-14T09:32:54.326Z,9.62
2017-03-14T09:33:54.336Z,9.6
2017-03-14T09:34:54.374Z,9.8
2017-03-14T09:35:54.401Z,9.85
2017-03-14T09:36:54.442Z,9.84
2017-03-14T09:37:54.468Z,9.89
2017-03-14T09:38:54.489Z,9.95
2017-03-14T09:39:54.532Z,9.98
2017-03-14T09:40:54.554Z,9.82
2017-03-14T09:41:54.578Z,9.84
2017-03-14T09:42:54.618Z,9.74
2017-03-14T09:43:54.646Z,9.62
2017-03-14T09:44:54.678Z,9.66
2017-03-14T09:45:54.711Z,9.48
2017-03-14T09:46:54.744Z,9.3
2017-03-14T09:47:54.767Z,9.2
2017-03-14T09:48:54.794Z,9.17
2017-03-14T09:49:54.827Z,9.21
2017-03-14T09:50:54.855Z,9.11
2017-03-14T09:51:54.916Z,9.21
2017-03-14T09:52:54.912Z,9.26
2017-03-14T09:53:54.946Z,9.37
2017-03-14T09:54:54.981Z,9.42
2017-03-14T09:55:55.009Z,9.44
2017-03-14T09:56:55.038Z,9.63
2017-03-14T09:57:55.069Z,9.7
2017-03-14T09:58:55.099Z,9.8
2017-03-14T09:59:55.127Z,9.78
2017-03-14T10:00:55.143Z,9.89
2017-03-14T10:01:55.174Z,9.8
2017-03-14T10:02:55.217Z,9.81
2017-03-14T10:03:55.254Z,9.98
2017-03-14T10:04:55.284Z,9.96
2017-03-14T10:05:55.313Z,9.9
2017-03-14T10:06:55.335Z,9.95
2017-03-14T10:07:55.383Z,10.1
2017-03-14T10:08:55.396Z,10.02
2017-03-14T10:09:55.431Z,10.17
2017-03-14T10:10:55.456Z,10.26
2017-03-14T10:11:55.485Z,10.23
2017-03-14T10:12:55.520Z,10.2
2017-03-14T10:13:55.551Z,10.11
2017-03-14T10:14:55.585Z,10.18
2017-03-14T10:15:55.608Z,10.14
2017-03-14T10:16:55.644Z,10.2
2017-03-14T10:17:55.673Z,10.2
2017-03-14T10:18:55.707Z,10.1
2017-03-14T10:19:55.734Z,10.14
2017-03-14T10:20:55.764Z,10.03
2017-03-14T10:21:55.794Z,9.93
2017-03-14T10:22:55.663Z,9.9
2017-03-14T10:23:55.688Z,9.85
2017-03-14T10:24:55.715Z,9.84
2017-03-14T10:25:55.757Z,9.75
2017-03-14T10:26:55.776Z,9.88
2017-03-14T10:27:55.810Z,9.88
2017-03-14T10:28:55.836Z,9.89
2017-03-14T10:29:55.857Z,9.84
2017-03-14T10:30:55.917Z,9.93
2017-03-14T10:31:55.920Z,9.95
2017-03-14T10:32:55.962Z,10.05
2017-03-14T10:33:55.990Z,10.23
2017-03-14T10:34:56.020Z,10.35
2017-03-14T10:35:56.054Z,10.49
2017-03-14T10:36:56.072Z,10.67
2017-03-14T10:37:56.121Z,11.05
2017-03-14T10:38:56.130Z,11.73
2017-03-14T10:39:56.169Z,12.91
2017-03-14T10:40:56.210Z,13.76
2017-03-14T10:41:56.246Z,14.21
2017-03-14T10:42:56.263Z,14.2
2017-03-14T10:43:56.326Z,13.94
2017-03-14T10:44:56.322Z,13.83
2017-03-14T10:45:56.344Z,14.09
2017-03-14T10:46:56.385Z,14.3
2017-03-14T10:47:56.421Z,14.69
2017-03-14T10:48:56.449Z,15.37
2017-03-14T10:49:56.477Z,15.86
2017-03-14T10:50:56.518Z,15.86
2017-03-14T10:51:56.555Z,15.77
2017-03-14T10:52:56.571Z,15.6
2017-03-14T10:53:56.612Z,15.38
2017-03-14T10:54:56.663Z,15.12
2017-03-14T10:55:56.667Z,14.89
2017-03-14T10:56:56.712Z,14.64
2017-03-14T10:57:56.735Z,14.24
2017-03-14T10:58:56.770Z,14.03
2017-03-14T10:59:56.807Z,13.95
2017-03-14T11:00:56.824Z,14.05
2017-03-14T11:01:56.857Z,14.2
2017-03-14T11:02:56.893Z,14.49
2017-03-14T11:03:56.909Z,14.63
2017-03-14T11:04:56.949Z,14.42
2017-03-14T11:05:56.987Z,14.26
2017-03-14T11:06:57.014Z,14.01
2017-03-14T11:07:57.071Z,14.06
2017-03-14T11:08:57.086Z,13.9
2017-03-14T11:09:57.122Z,13.7
2017-03-14T11:10:57.153Z,13.69
2017-03-14T11:11:57.189Z,13.53
2017-03-14T11:12:57.212Z,13.2
2017-03-14T11:13:57.249Z,13.1
2017-03-14T11:14:57.265Z,12.88
2017-03-14T11:15:57.408Z,12.58
2017-03-14T11:16:57.339Z,12.48
2017-03-14T11:17:57.383Z,12.37
2017-03-14T11:18:57.410Z,12.23
2017-03-14T11:19:57.437Z,11.95
2017-03-14T11:20:57.568Z,11.98
2017-03-14T11:21:57.509Z,12.04
2017-03-14T11:22:57.507Z,12.08
2017-03-14T11:23:57.569Z,12.05
2017-03-14T11:24:57.602Z,12.07
2017-03-14T11:25:57.771Z,12.28
2017-03-14T11:26:57.668Z,12.26
2017-03-14T11:27:57.699Z,12.18
2017-03-14T11:28:57.718Z,12.1
2017-03-14T11:29:57.761Z,12.11
2017-03-14T11:30:57.796Z,12.11
2017-03-14T11:31:57.827Z,12.07
2017-03-14T11:32:57.855Z,12.11
2017-03-14T11:33:57.883Z,12.19
2017-03-14T11:34:57.918Z,12.58
2017-03-14T11:35:57.928Z,12.66
2017-03-14T11:36:57.985Z,13.14
2017-03-14T11:37:58.016Z,13.54
2017-03-14T11:38:58.047Z,13.6
2017-03-14T11:39:58.078Z,13.78
2017-03-14T11:40:58.108Z,13.87
2017-03-14T11:41:58.134Z,13.83
2017-03-14T11:42:58.171Z,13.7
2017-03-14T11:43:58.205Z,13.65
2017-03-14T11:44:58.210Z,13.48
2017-03-14T11:45:58.277Z,13.32
2017-03-14T11:46:58.299Z,13.1
2017-03-14T11:47:58.332Z,12.83
2017-03-14T11:48:58.347Z,12.62
2017-03-14T11:49:58.383Z,12.36
2017-03-14T11:50:58.426Z,12.01
2017-03-14T11:51:58.472Z,11.73
2017-03-14T11:52:58.492Z,11.81
2017-03-14T11:53:58.523Z,11.67
2017-03-14T11:54:58.561Z,11.61
2017-03-14T11:55:58.568Z,11.46
2017-03-14T11:56:58.620Z,11.48
2017-03-14T11:57:58.649Z,11.45
2017-03-14T11:58:58.682Z,11.57
2017-03-14T11:59:58.713Z,11.48
2017-03-14T12:00:58.746Z,11.35
2017-03-14T12:01:58.785Z,11.23
2017-03-14T12:02:59.019Z,11.21
2017-03-14T12:03:58.831Z,11.21
2017-03-14T12:04:58.854Z,11.18
2017-03-14T12:05:58.929Z,11.2
2017-03-14T12:06:58.943Z,11.26
2017-03-14T12:07:58.958Z,11.2
2017-03-14T12:08:58.999Z,11.23
2017-03-14T12:09:59.037Z,11.21
2017-03-14T12:10:59.050Z,11.23
2017-03-14T12:11:59.091Z,11.23
2017-03-14T12:12:59.337Z,11.16
2017-03-14T12:13:59.158Z,11.18
2017-03-14T12:14:59.186Z,11.02
2017-03-14T12:15:59.223Z,11.08
2017-03-14T12:16:59.252Z,11.06
2017-03-14T12:17:59.287Z,11.09
2017-03-14T12:18:59.308Z,11
2017-03-14T12:19:59.339Z,11.06
2017-03-14T12:20:59.368Z,11.12
2017-03-14T12:21:59.420Z,11.05
2017-03-14T12:22:59.493Z,11.03
2017-03-14T12:23:59.481Z,11.2
2017-03-14T12:24:59.530Z,11.2
2017-03-14T12:25:59.526Z,11.3
2017-03-14T12:26:59.548Z,11.38
2017-03-14T12:27:59.602Z,11.51
2017-03-14T12:28:59.617Z,11.57
2017-03-14T12:29:59.867Z,11.67
2017-03-14T12:30:59.697Z,11.64
2017-03-14T12:31:59.728Z,11.71
2017-03-14T12:32:59.752Z,11.78
2017-03-14T12:33:59.802Z,11.86
2017-03-14T12:34:59.816Z,11.91
2017-03-14T12:35:59.854Z,12.2
2017-03-14T12:36:59.871Z,12.38
2017-03-14T12:37:59.903Z,12.59
2017-03-14T12:38:59.963Z,12.62
2017-03-14T12:39:59.956Z,12.77
2017-03-14T12:40:59.995Z,12.77
2017-03-14T12:42:00.031Z,12.95
2017-03-14T12:43:00.064Z,12.92
2017-03-14T12:44:00.081Z,12.95
2017-03-14T12:45:00.124Z,13.09
2017-03-14T12:46:00.161Z,12.94
2017-03-14T12:47:00.186Z,12.84
2017-03-14T12:48:00.221Z,12.65
2017-03-14T12:49:00.253Z,12.41
2017-03-14T12:50:00.292Z,12.23
2017-03-14T12:51:00.285Z,12.04
2017-03-14T12:52:00.346Z,11.86
2017-03-14T12:53:00.390Z,11.66
2017-03-14T12:54:00.422Z,11.64
2017-03-14T12:55:00.445Z,11.43
2017-03-14T12:56:00.479Z,11.3
2017-03-14T12:57:00.510Z,11.33
2017-03-14T12:58:00.538Z,11.23
2017-03-14T12:59:00.579Z,11.16
2017-03-14T13:00:00.600Z,11.13
2017-03-14T13:01:00.638Z,11.18
2017-03-14T13:02:00.644Z,11.16
2017-03-14T13:03:00.691Z,11.16
2017-03-14T13:04:00.728Z,11.33
2017-03-14T13:05:00.768Z,11.53
2017-03-14T13:06:00.788Z,11.6
2017-03-14T13:07:00.838Z,11.76
2017-03-14T13:08:00.846Z,11.88
2017-03-14T13:09:00.901Z,12.05
2017-03-14T13:10:00.924Z,12.23
2017-03-14T13:11:00.959Z,12.29
2017-03-14T13:12:00.979Z,12.48
2017-03-14T13:13:01.025Z,12.56
2017-03-14T13:14:01.045Z,12.61
2017-03-14T13:15:01.088Z,12.66
2017-03-14T13:16:01.110Z,12.59
2017-03-14T13:17:01.144Z,12.55